sensor_id;sensor_type;location;lat;lon;timestamp;P1;durP1;ratioP1;P2;durP2;ratioP2
31596;SDS011;74162;50.912;6.918;2024-01-30T00:00:29;25.02;;;20.13;;
31596;SDS011;74162;50.912;6.918;2024-01-30T00:01:01;24.67;;;19.40;;
31596;SDS011;74162;50.912;6.918;2024-01-30T00:01:33;23.42;;;20.02;;
31596;SDS011;74162;50.912;6.918;2024-01-30T00:02:05;21.65;;;19.38;;
31596;SDS011;74162;50.912;6.918;2024-01-30T00:02:37;22.80;;;18.55;;
31596;SDS011;74162;50.912;6.918;2024-01-30T00:03:09;21.95;;;19.52;;
31596;SDS011;74162;50.912;6.918;2024-01-30T00:03:41;22.92;;;19.38;;
31596;SDS011;74162;50.912;6.918;2024-01-30T00:04:13;22.90;;;19.50;;
31596;SDS011;74162;50.912;6.918;2024-01-30T00:04:45;22.90;;;19.50;;
31596;SDS011;74162;50.912;6.918;2024-01-30T00:05:17;26.90;;;20.45;;
31596;SDS011;74162;50.912;6.918;2024-01-30T00:05:49;21.80;;;19.48;;
31596;SDS011;74162;50.912;6.918;2024-01-30T00:06:21;22.75;;;20.02;;
31596;SDS011;74162;50.912;6.918;2024-01-30T00:06:53;24.25;;;20.50;;
31596;SDS011;74162;50.912;6.918;2024-01-30T00:07:25;22.63;;;20.08;;
31596;SDS011;74162;50.912;6.918;2024-01-30T00:07:57;22.30;;;19.55;;
31596;SDS011;74162;50.912;6.918;2024-01-30T00:08:29;22.45;;;20.00;;
31596;SDS011;74162;50.912;6.918;2024-01-30T00:09:01;25.27;;;20.42;;
31596;SDS011;74162;50.912;6.918;2024-01-30T00:09:33;23.95;;;20.20;;
31596;SDS011;74162;50.912;6.918;2024-01-30T00:10:05;23.02;;;20.58;;
31596;SDS011;74162;50.912;6.918;2024-01-30T00:10:37;26.38;;;20.75;;
31596;SDS011;74162;50.912;6.918;2024-01-30T00:11:09;24.58;;;21.02;;
31596;SDS011;74162;50.912;6.918;2024-01-30T00:11:41;21.60;;;19.33;;
31596;SDS011;74162;50.912;6.918;2024-01-30T00:12:14;22.67;;;20.15;;
31596;SDS011;74162;50.912;6.918;2024-01-30T00:12:46;25.33;;;20.35;;
31596;SDS011;74162;50.912;6.918;2024-01-30T00:13:18;23.35;;;20.77;;
31596;SDS011;74162;50.912;6.918;2024-01-30T00:13:51;23.80;;;20.52;;
31596;SDS011;74162;50.912;6.918;2024-01-30T00:14:23;25.20;;;20.58;;
31596;SDS011;74162;50.912;6.918;2024-01-30T00:14:55;23.88;;;20.88;;
31596;SDS011;74162;50.912;6.918;2024-01-30T00:15:26;26.15;;;21.05;;
31596;SDS011;74162;50.912;6.918;2024-01-30T00:15:59;23.65;;;20.85;;
31596;SDS011;74162;50.912;6.918;2024-01-30T00:16:31;24.67;;;20.98;;
31596;SDS011;74162;50.912;6.918;2024-01-30T00:17:03;23.75;;;20.73;;
31596;SDS011;74162;50.912;6.918;2024-01-30T00:17:35;24.08;;;20.40;;
31596;SDS011;74162;50.912;6.918;2024-01-30T00:18:07;24.67;;;21.02;;
31596;SDS011;74162;50.912;6.918;2024-01-30T00:18:39;26.63;;;21.33;;
31596;SDS011;74162;50.912;6.918;2024-01-30T00:19:11;23.92;;;21.42;;
31596;SDS011;74162;50.912;6.918;2024-01-30T00:19:43;24.05;;;21.23;;
31596;SDS011;74162;50.912;6.918;2024-01-30T00:20:15;25.25;;;21.83;;
31596;SDS011;74162;50.912;6.918;2024-01-30T00:20:47;23.67;;;21.20;;
31596;SDS011;74162;50.912;6.918;2024-01-30T00:21:19;25.85;;;21.90;;
31596;SDS011;74162;50.912;6.918;2024-01-30T00:21:52;25.38;;;21.50;;
31596;SDS011;74162;50.912;6.918;2024-01-30T00:22:24;24.10;;;21.63;;
31596;SDS011;74162;50.912;6.918;2024-01-30T00:22:56;22.25;;;19.75;;
31596;SDS011;74162;50.912;6.918;2024-01-30T00:23:28;25.15;;;21.33;;
31596;SDS011;74162;50.912;6.918;2024-01-30T00:24:00;24.02;;;20.27;;
31596;SDS011;74162;50.912;6.918;2024-01-30T00:24:31;23.63;;;21.05;;
31596;SDS011;74162;50.912;6.918;2024-01-30T00:25:03;24.65;;;21.42;;
31596;SDS011;74162;50.912;6.918;2024-01-30T00:25:36;24.25;;;20.58;;
31596;SDS011;74162;50.912;6.918;2024-01-30T00:26:07;24.55;;;20.70;;
31596;SDS011;74162;50.912;6.918;2024-01-30T00:26:40;26.90;;;22.27;;
31596;SDS011;74162;50.912;6.918;2024-01-30T00:27:12;25.85;;;20.55;;
31596;SDS011;74162;50.912;6.918;2024-01-30T00:27:45;25.73;;;21.85;;
31596;SDS011;74162;50.912;6.918;2024-01-30T00:28:17;25.23;;;21.58;;
31596;SDS011;74162;50.912;6.918;2024-01-30T00:28:49;23.25;;;20.75;;
31596;SDS011;74162;50.912;6.918;2024-01-30T00:29:21;24.77;;;21.77;;
31596;SDS011;74162;50.912;6.918;2024-01-30T00:29:53;23.50;;;20.80;;
31596;SDS011;74162;50.912;6.918;2024-01-30T00:30:25;24.15;;;20.58;;
31596;SDS011;74162;50.912;6.918;2024-01-30T00:30:57;22.88;;;20.35;;
31596;SDS011;74162;50.912;6.918;2024-01-30T00:31:28;25.10;;;21.08;;
31596;SDS011;74162;50.912;6.918;2024-01-30T00:32:00;24.40;;;20.55;;
31596;SDS011;74162;50.912;6.918;2024-01-30T00:32:32;24.67;;;21.08;;
31596;SDS011;74162;50.912;6.918;2024-01-30T00:33:04;23.48;;;20.95;;
31596;SDS011;74162;50.912;6.918;2024-01-30T00:33:36;23.92;;;20.63;;
31596;SDS011;74162;50.912;6.918;2024-01-30T00:34:08;23.00;;;20.63;;
31596;SDS011;74162;50.912;6.918;2024-01-30T00:34:41;24.98;;;20.52;;
31596;SDS011;74162;50.912;6.918;2024-01-30T00:35:13;26.63;;;21.65;;
31596;SDS011;74162;50.912;6.918;2024-01-30T00:35:45;25.95;;;21.73;;
31596;SDS011;74162;50.912;6.918;2024-01-30T00:36:17;23.13;;;20.55;;
31596;SDS011;74162;50.912;6.918;2024-01-30T00:36:49;26.27;;;21.27;;
31596;SDS011;74162;50.912;6.918;2024-01-30T00:37:21;24.52;;;20.15;;
31596;SDS011;74162;50.912;6.918;2024-01-30T00:37:53;22.95;;;20.63;;
31596;SDS011;74162;50.912;6.918;2024-01-30T00:38:25;24.40;;;21.00;;
31596;SDS011;74162;50.912;6.918;2024-01-30T00:38:57;23.15;;;20.63;;
31596;SDS011;74162;50.912;6.918;2024-01-30T00:39:28;24.13;;;21.17;;
31596;SDS011;74162;50.912;6.918;2024-01-30T00:40:00;25.17;;;21.35;;
31596;SDS011;74162;50.912;6.918;2024-01-30T00:40:33;25.38;;;21.42;;
31596;SDS011;74162;50.912;6.918;2024-01-30T00:41:04;28.17;;;21.85;;
31596;SDS011;74162;50.912;6.918;2024-01-30T00:41:36;23.73;;;21.13;;
31596;SDS011;74162;50.912;6.918;2024-01-30T00:42:08;24.90;;;21.25;;
31596;SDS011;74162;50.912;6.918;2024-01-30T00:42:40;25.40;;;21.50;;
31596;SDS011;74162;50.912;6.918;2024-01-30T00:43:13;23.20;;;20.70;;
31596;SDS011;74162;50.912;6.918;2024-01-30T00:43:46;24.13;;;21.50;;
31596;SDS011;74162;50.912;6.918;2024-01-30T00:44:18;24.20;;;21.38;;
31596;SDS011;74162;50.912;6.918;2024-01-30T00:44:50;26.38;;;20.83;;
31596;SDS011;74162;50.912;6.918;2024-01-30T00:45:22;22.95;;;20.45;;
31596;SDS011;74162;50.912;6.918;2024-01-30T00:45:53;22.38;;;20.00;;
31596;SDS011;74162;50.912;6.918;2024-01-30T00:46:25;23.83;;;19.88;;
31596;SDS011;74162;50.912;6.918;2024-01-30T00:46:57;24.38;;;21.05;;
31596;SDS011;74162;50.912;6.918;2024-01-30T00:47:29;24.00;;;21.45;;
31596;SDS011;74162;50.912;6.918;2024-01-30T00:48:01;23.73;;;21.23;;
31596;SDS011;74162;50.912;6.918;2024-01-30T00:48:33;24.52;;;21.85;;
31596;SDS011;74162;50.912;6.918;2024-01-30T00:49:05;23.48;;;20.92;;
31596;SDS011;74162;50.912;6.918;2024-01-30T00:49:37;24.98;;;22.38;;
31596;SDS011;74162;50.912;6.918;2024-01-30T00:50:09;25.92;;;21.25;;
31596;SDS011;74162;50.912;6.918;2024-01-30T00:50:42;26.92;;;21.52;;
31596;SDS011;74162;50.912;6.918;2024-01-30T00:51:14;25.33;;;20.98;;
31596;SDS011;74162;50.912;6.918;2024-01-30T00:51:46;23.30;;;20.42;;
31596;SDS011;74162;50.912;6.918;2024-01-30T00:52:18;24.02;;;20.95;;
31596;SDS011;74162;50.912;6.918;2024-01-30T00:52:50;24.20;;;21.60;;
31596;SDS011;74162;50.912;6.918;2024-01-30T00:53:22;26.50;;;21.67;;
31596;SDS011;74162;50.912;6.918;2024-01-30T00:53:54;25.58;;;20.63;;
31596;SDS011;74162;50.912;6.918;2024-01-30T00:54:26;23.95;;;20.63;;
31596;SDS011;74162;50.912;6.918;2024-01-30T00:54:57;26.15;;;21.67;;
31596;SDS011;74162;50.912;6.918;2024-01-30T00:55:29;25.20;;;21.48;;
31596;SDS011;74162;50.912;6.918;2024-01-30T00:56:01;23.45;;;20.77;;
31596;SDS011;74162;50.912;6.918;2024-01-30T00:56:33;26.10;;;21.45;;
31596;SDS011;74162;50.912;6.918;2024-01-30T00:57:05;26.13;;;21.35;;
31596;SDS011;74162;50.912;6.918;2024-01-30T00:57:37;23.80;;;21.35;;
31596;SDS011;74162;50.912;6.918;2024-01-30T00:58:09;26.90;;;22.00;;
31596;SDS011;74162;50.912;6.918;2024-01-30T00:58:42;24.85;;;21.67;;
31596;SDS011;74162;50.912;6.918;2024-01-30T00:59:14;26.63;;;21.35;;
31596;SDS011;74162;50.912;6.918;2024-01-30T00:59:46;25.83;;;21.23;;
31596;SDS011;74162;50.912;6.918;2024-01-30T01:00:18;24.42;;;20.45;;
31596;SDS011;74162;50.912;6.918;2024-01-30T01:00:50;24.85;;;22.10;;
31596;SDS011;74162;50.912;6.918;2024-01-30T01:01:22;25.08;;;21.55;;
31596;SDS011;74162;50.912;6.918;2024-01-30T01:01:54;22.85;;;20.45;;
31596;SDS011;74162;50.912;6.918;2024-01-30T01:02:26;25.77;;;21.27;;
31596;SDS011;74162;50.912;6.918;2024-01-30T01:02:58;24.08;;;21.52;;
31596;SDS011;74162;50.912;6.918;2024-01-30T01:03:30;26.83;;;21.33;;
31596;SDS011;74162;50.912;6.918;2024-01-30T01:04:02;23.13;;;20.63;;
31596;SDS011;74162;50.912;6.918;2024-01-30T01:04:35;24.17;;;20.88;;
31596;SDS011;74162;50.912;6.918;2024-01-30T01:05:07;23.98;;;21.15;;
31596;SDS011;74162;50.912;6.918;2024-01-30T01:05:39;23.95;;;20.85;;
31596;SDS011;74162;50.912;6.918;2024-01-30T01:06:11;24.20;;;21.65;;
31596;SDS011;74162;50.912;6.918;2024-01-30T01:06:43;27.27;;;21.67;;
31596;SDS011;74162;50.912;6.918;2024-01-30T01:07:15;27.25;;;21.33;;
31596;SDS011;74162;50.912;6.918;2024-01-30T01:07:47;26.65;;;21.50;;
31596;SDS011;74162;50.912;6.918;2024-01-30T01:08:19;24.00;;;20.65;;
31596;SDS011;74162;50.912;6.918;2024-01-30T01:08:51;23.77;;;21.05;;
31596;SDS011;74162;50.912;6.918;2024-01-30T01:09:22;24.67;;;21.35;;
31596;SDS011;74162;50.912;6.918;2024-01-30T01:09:55;24.10;;;21.13;;
31596;SDS011;74162;50.912;6.918;2024-01-30T01:10:26;24.05;;;21.13;;
31596;SDS011;74162;50.912;6.918;2024-01-30T01:10:58;26.30;;;21.80;;
31596;SDS011;74162;50.912;6.918;2024-01-30T01:11:30;24.70;;;21.20;;
31596;SDS011;74162;50.912;6.918;2024-01-30T01:12:02;24.55;;;21.23;;
31596;SDS011;74162;50.912;6.918;2024-01-30T01:12:35;27.95;;;21.48;;
31596;SDS011;74162;50.912;6.918;2024-01-30T01:13:07;25.05;;;21.05;;
31596;SDS011;74162;50.912;6.918;2024-01-30T01:13:39;23.08;;;20.67;;
31596;SDS011;74162;50.912;6.918;2024-01-30T01:14:12;28.17;;;20.98;;
31596;SDS011;74162;50.912;6.918;2024-01-30T01:14:44;30.88;;;21.90;;
31596;SDS011;74162;50.912;6.918;2024-01-30T01:15:16;26.70;;;22.70;;
31596;SDS011;74162;50.912;6.918;2024-01-30T01:15:48;25.17;;;21.67;;
31596;SDS011;74162;50.912;6.918;2024-01-30T01:16:20;27.08;;;22.45;;
31596;SDS011;74162;50.912;6.918;2024-01-30T01:16:52;25.02;;;21.52;;
31596;SDS011;74162;50.912;6.918;2024-01-30T01:17:24;25.58;;;21.88;;
31596;SDS011;74162;50.912;6.918;2024-01-30T01:17:56;24.92;;;20.92;;
31596;SDS011;74162;50.912;6.918;2024-01-30T01:18:28;23.80;;;20.92;;
31596;SDS011;74162;50.912;6.918;2024-01-30T01:19:00;25.17;;;21.65;;
31596;SDS011;74162;50.912;6.918;2024-01-30T01:19:32;24.77;;;22.05;;
31596;SDS011;74162;50.912;6.918;2024-01-30T01:20:05;25.50;;;21.65;;
31596;SDS011;74162;50.912;6.918;2024-01-30T01:20:38;24.98;;;21.55;;
31596;SDS011;74162;50.912;6.918;2024-01-30T01:21:10;23.77;;;21.17;;
31596;SDS011;74162;50.912;6.918;2024-01-30T01:21:42;24.17;;;21.55;;
31596;SDS011;74162;50.912;6.918;2024-01-30T01:22:14;24.42;;;21.17;;
31596;SDS011;74162;50.912;6.918;2024-01-30T01:22:47;24.13;;;20.77;;
31596;SDS011;74162;50.912;6.918;2024-01-30T01:23:18;25.35;;;21.38;;
31596;SDS011;74162;50.912;6.918;2024-01-30T01:23:50;26.23;;;21.02;;
31596;SDS011;74162;50.912;6.918;2024-01-30T01:24:22;23.50;;;20.75;;
31596;SDS011;74162;50.912;6.918;2024-01-30T01:24:54;28.60;;;21.40;;
31596;SDS011;74162;50.912;6.918;2024-01-30T01:25:26;25.15;;;21.65;;
31596;SDS011;74162;50.912;6.918;2024-01-30T01:25:58;24.25;;;20.55;;
31596;SDS011;74162;50.912;6.918;2024-01-30T01:26:31;24.80;;;20.48;;
31596;SDS011;74162;50.912;6.918;2024-01-30T01:27:04;27.27;;;20.80;;
31596;SDS011;74162;50.912;6.918;2024-01-30T01:27:37;24.67;;;20.95;;
31596;SDS011;74162;50.912;6.918;2024-01-30T01:28:09;24.08;;;20.83;;
31596;SDS011;74162;50.912;6.918;2024-01-30T01:28:41;24.20;;;21.58;;
31596;SDS011;74162;50.912;6.918;2024-01-30T01:29:14;24.83;;;21.52;;
31596;SDS011;74162;50.912;6.918;2024-01-30T01:29:46;26.25;;;20.92;;
31596;SDS011;74162;50.912;6.918;2024-01-30T01:30:18;26.10;;;21.25;;
31596;SDS011;74162;50.912;6.918;2024-01-30T01:30:50;23.33;;;20.55;;
31596;SDS011;74162;50.912;6.918;2024-01-30T01:31:22;25.27;;;20.73;;
31596;SDS011;74162;50.912;6.918;2024-01-30T01:31:54;29.13;;;21.17;;
31596;SDS011;74162;50.912;6.918;2024-01-30T01:32:25;25.30;;;20.05;;
31596;SDS011;74162;50.912;6.918;2024-01-30T01:32:57;24.17;;;21.13;;
31596;SDS011;74162;50.912;6.918;2024-01-30T01:33:29;22.90;;;19.83;;
31596;SDS011;74162;50.912;6.918;2024-01-30T01:34:02;24.63;;;20.70;;
31596;SDS011;74162;50.912;6.918;2024-01-30T01:34:34;22.75;;;20.30;;
31596;SDS011;74162;50.912;6.918;2024-01-30T01:35:06;24.48;;;19.88;;
31596;SDS011;74162;50.912;6.918;2024-01-30T01:35:38;23.48;;;20.98;;
31596;SDS011;74162;50.912;6.918;2024-01-30T01:36:10;26.60;;;21.38;;
31596;SDS011;74162;50.912;6.918;2024-01-30T01:36:42;24.92;;;20.80;;
31596;SDS011;74162;50.912;6.918;2024-01-30T01:37:14;25.83;;;20.42;;
31596;SDS011;74162;50.912;6.918;2024-01-30T01:37:46;23.33;;;20.00;;
31596;SDS011;74162;50.912;6.918;2024-01-30T01:38:18;25.13;;;20.80;;
31596;SDS011;74162;50.912;6.918;2024-01-30T01:38:49;25.88;;;20.92;;
31596;SDS011;74162;50.912;6.918;2024-01-30T01:39:22;24.23;;;20.05;;
31596;SDS011;74162;50.912;6.918;2024-01-30T01:39:54;22.60;;;20.20;;
31596;SDS011;74162;50.912;6.918;2024-01-30T01:40:26;23.92;;;20.20;;
31596;SDS011;74162;50.912;6.918;2024-01-30T01:40:58;22.52;;;20.00;;
31596;SDS011;74162;50.912;6.918;2024-01-30T01:41:30;24.38;;;20.63;;
31596;SDS011;74162;50.912;6.918;2024-01-30T01:42:03;22.40;;;19.98;;
31596;SDS011;74162;50.912;6.918;2024-01-30T01:42:35;23.98;;;19.77;;
31596;SDS011;74162;50.912;6.918;2024-01-30T01:43:07;22.58;;;19.65;;
31596;SDS011;74162;50.912;6.918;2024-01-30T01:43:39;21.30;;;19.05;;
31596;SDS011;74162;50.912;6.918;2024-01-30T01:44:11;21.90;;;19.33;;
31596;SDS011;74162;50.912;6.918;2024-01-30T01:44:44;23.73;;;20.10;;
31596;SDS011;74162;50.912;6.918;2024-01-30T01:45:16;23.38;;;20.25;;
31596;SDS011;74162;50.912;6.918;2024-01-30T01:45:48;21.35;;;19.15;;
31596;SDS011;74162;50.912;6.918;2024-01-30T01:46:20;22.23;;;19.80;;
31596;SDS011;74162;50.912;6.918;2024-01-30T01:46:52;23.10;;;20.25;;
31596;SDS011;74162;50.912;6.918;2024-01-30T01:47:25;25.92;;;21.63;;
31596;SDS011;74162;50.912;6.918;2024-01-30T01:47:57;24.50;;;20.58;;
31596;SDS011;74162;50.912;6.918;2024-01-30T01:48:29;22.58;;;20.15;;
31596;SDS011;74162;50.912;6.918;2024-01-30T01:49:01;25.60;;;21.27;;
31596;SDS011;74162;50.912;6.918;2024-01-30T01:49:36;21.70;;;19.40;;
31596;SDS011;74162;50.912;6.918;2024-01-30T01:50:08;22.38;;;20.00;;
31596;SDS011;74162;50.912;6.918;2024-01-30T01:50:41;23.17;;;20.67;;
31596;SDS011;74162;50.912;6.918;2024-01-30T01:51:14;22.25;;;19.38;;
31596;SDS011;74162;50.912;6.918;2024-01-30T01:51:47;21.67;;;19.20;;
31596;SDS011;74162;50.912;6.918;2024-01-30T01:52:20;24.17;;;19.40;;
31596;SDS011;74162;50.912;6.918;2024-01-30T01:52:52;23.15;;;19.67;;
31596;SDS011;74162;50.912;6.918;2024-01-30T01:53:25;22.52;;;19.83;;
31596;SDS011;74162;50.912;6.918;2024-01-30T01:53:57;22.67;;;19.92;;
31596;SDS011;74162;50.912;6.918;2024-01-30T01:54:33;22.42;;;18.80;;
31596;SDS011;74162;50.912;6.918;2024-01-30T01:55:05;22.27;;;19.45;;
31596;SDS011;74162;50.912;6.918;2024-01-30T01:55:38;25.15;;;19.40;;
31596;SDS011;74162;50.912;6.918;2024-01-30T01:56:10;22.02;;;19.38;;
31596;SDS011;74162;50.912;6.918;2024-01-30T01:56:42;22.10;;;19.77;;
31596;SDS011;74162;50.912;6.918;2024-01-30T01:57:15;22.70;;;18.95;;
31596;SDS011;74162;50.912;6.918;2024-01-30T01:57:47;22.98;;;19.75;;
31596;SDS011;74162;50.912;6.918;2024-01-30T01:58:18;23.50;;;20.52;;
31596;SDS011;74162;50.912;6.918;2024-01-30T01:58:53;23.73;;;20.27;;
31596;SDS011;74162;50.912;6.918;2024-01-30T01:59:27;23.08;;;19.73;;
31596;SDS011;74162;50.912;6.918;2024-01-30T01:59:59;23.55;;;19.70;;
31596;SDS011;74162;50.912;6.918;2024-01-30T02:00:32;23.42;;;20.48;;
31596;SDS011;74162;50.912;6.918;2024-01-30T02:01:04;23.00;;;20.05;;
31596;SDS011;74162;50.912;6.918;2024-01-30T02:01:36;22.00;;;18.98;;
31596;SDS011;74162;50.912;6.918;2024-01-30T02:02:08;23.48;;;19.85;;
31596;SDS011;74162;50.912;6.918;2024-01-30T02:02:43;22.38;;;19.15;;
31596;SDS011;74162;50.912;6.918;2024-01-30T02:03:17;25.50;;;19.85;;
31596;SDS011;74162;50.912;6.918;2024-01-30T02:03:49;24.35;;;20.17;;
31596;SDS011;74162;50.912;6.918;2024-01-30T02:04:22;22.52;;;19.80;;
31596;SDS011;74162;50.912;6.918;2024-01-30T02:04:54;23.23;;;20.02;;
31596;SDS011;74162;50.912;6.918;2024-01-30T02:05:26;24.27;;;19.65;;
31596;SDS011;74162;50.912;6.918;2024-01-30T02:05:58;22.65;;;19.60;;
31596;SDS011;74162;50.912;6.918;2024-01-30T02:06:30;23.88;;;19.55;;
31596;SDS011;74162;50.912;6.918;2024-01-30T02:07:03;22.77;;;19.25;;
31596;SDS011;74162;50.912;6.918;2024-01-30T02:07:35;24.77;;;19.58;;
31596;SDS011;74162;50.912;6.918;2024-01-30T02:08:07;22.13;;;19.27;;
31596;SDS011;74162;50.912;6.918;2024-01-30T02:08:40;22.08;;;19.35;;
31596;SDS011;74162;50.912;6.918;2024-01-30T02:09:13;24.50;;;19.60;;
31596;SDS011;74162;50.912;6.918;2024-01-30T02:09:44;22.88;;;19.58;;
31596;SDS011;74162;50.912;6.918;2024-01-30T02:10:17;23.35;;;19.90;;
31596;SDS011;74162;50.912;6.918;2024-01-30T02:10:49;27.10;;;20.67;;
31596;SDS011;74162;50.912;6.918;2024-01-30T02:11:21;22.98;;;20.08;;
31596;SDS011;74162;50.912;6.918;2024-01-30T02:11:54;22.08;;;19.13;;
31596;SDS011;74162;50.912;6.918;2024-01-30T02:12:26;22.10;;;19.77;;
31596;SDS011;74162;50.912;6.918;2024-01-30T02:12:58;24.45;;;19.17;;
31596;SDS011;74162;50.912;6.918;2024-01-30T02:13:30;22.92;;;19.02;;
31596;SDS011;74162;50.912;6.918;2024-01-30T02:14:02;22.77;;;19.98;;
31596;SDS011;74162;50.912;6.918;2024-01-30T02:14:45;21.85;;;19.55;;
31596;SDS011;74162;50.912;6.918;2024-01-30T02:15:17;23.88;;;19.00;;
31596;SDS011;74162;50.912;6.918;2024-01-30T02:15:49;25.20;;;20.02;;
31596;SDS011;74162;50.912;6.918;2024-01-30T02:16:22;23.42;;;20.02;;
31596;SDS011;74162;50.912;6.918;2024-01-30T02:16:54;22.88;;;19.27;;
31596;SDS011;74162;50.912;6.918;2024-01-30T02:17:26;22.65;;;19.08;;
31596;SDS011;74162;50.912;6.918;2024-01-30T02:17:58;22.48;;;20.17;;
31596;SDS011;74162;50.912;6.918;2024-01-30T02:18:29;24.17;;;19.48;;
31596;SDS011;74162;50.912;6.918;2024-01-30T02:19:01;21.25;;;18.88;;
31596;SDS011;74162;50.912;6.918;2024-01-30T02:19:33;21.20;;;18.90;;
31596;SDS011;74162;50.912;6.918;2024-01-30T02:20:06;22.23;;;19.33;;
31596;SDS011;74162;50.912;6.918;2024-01-30T02:20:38;23.20;;;19.55;;
31596;SDS011;74162;50.912;6.918;2024-01-30T02:21:12;21.80;;;18.95;;
31596;SDS011;74162;50.912;6.918;2024-01-30T02:21:44;22.60;;;20.08;;
31596;SDS011;74162;50.912;6.918;2024-01-30T02:22:17;24.95;;;19.98;;
31596;SDS011;74162;50.912;6.918;2024-01-30T02:22:50;23.63;;;19.70;;
31596;SDS011;74162;50.912;6.918;2024-01-30T02:23:24;21.45;;;19.15;;
31596;SDS011;74162;50.912;6.918;2024-01-30T02:23:57;24.08;;;20.85;;
31596;SDS011;74162;50.912;6.918;2024-01-30T02:24:31;21.75;;;19.38;;
31596;SDS011;74162;50.912;6.918;2024-01-30T02:25:03;24.45;;;19.48;;
31596;SDS011;74162;50.912;6.918;2024-01-30T02:25:39;24.13;;;19.55;;
31596;SDS011;74162;50.912;6.918;2024-01-30T02:26:12;22.27;;;19.88;;
31596;SDS011;74162;50.912;6.918;2024-01-30T02:26:44;21.27;;;18.98;;
31596;SDS011;74162;50.912;6.918;2024-01-30T02:27:15;23.73;;;19.02;;
31596;SDS011;74162;50.912;6.918;2024-01-30T02:27:47;21.42;;;19.23;;
31596;SDS011;74162;50.912;6.918;2024-01-30T02:28:19;23.17;;;18.95;;
31596;SDS011;74162;50.912;6.918;2024-01-30T02:28:51;21.80;;;19.50;;
31596;SDS011;74162;50.912;6.918;2024-01-30T02:29:23;24.15;;;19.23;;
31596;SDS011;74162;50.912;6.918;2024-01-30T02:29:55;21.65;;;19.35;;
31596;SDS011;74162;50.912;6.918;2024-01-30T02:30:27;23.38;;;19.00;;
31596;SDS011;74162;50.912;6.918;2024-01-30T02:30:59;23.45;;;19.15;;
31596;SDS011;74162;50.912;6.918;2024-01-30T02:31:31;24.65;;;19.17;;
31596;SDS011;74162;50.912;6.918;2024-01-30T02:32:03;23.52;;;19.13;;
31596;SDS011;74162;50.912;6.918;2024-01-30T02:32:36;21.50;;;19.20;;
31596;SDS011;74162;50.912;6.918;2024-01-30T02:33:08;21.98;;;19.05;;
31596;SDS011;74162;50.912;6.918;2024-01-30T02:33:40;23.42;;;17.90;;
31596;SDS011;74162;50.912;6.918;2024-01-30T02:34:13;20.45;;;18.35;;
31596;SDS011;74162;50.912;6.918;2024-01-30T02:34:45;22.90;;;19.33;;
31596;SDS011;74162;50.912;6.918;2024-01-30T02:35:17;21.33;;;18.50;;
31596;SDS011;74162;50.912;6.918;2024-01-30T02:35:49;21.15;;;18.67;;
31596;SDS011;74162;50.912;6.918;2024-01-30T02:36:22;23.23;;;19.38;;
31596;SDS011;74162;50.912;6.918;2024-01-30T02:36:54;23.98;;;19.67;;
31596;SDS011;74162;50.912;6.918;2024-01-30T02:37:26;23.50;;;19.65;;
31596;SDS011;74162;50.912;6.918;2024-01-30T02:37:58;23.48;;;19.23;;
31596;SDS011;74162;50.912;6.918;2024-01-30T02:38:30;22.30;;;18.80;;
31596;SDS011;74162;50.912;6.918;2024-01-30T02:39:02;24.67;;;19.52;;
31596;SDS011;74162;50.912;6.918;2024-01-30T02:39:34;21.42;;;19.13;;
31596;SDS011;74162;50.912;6.918;2024-01-30T02:40:06;22.48;;;19.02;;
31596;SDS011;74162;50.912;6.918;2024-01-30T02:40:39;22.88;;;19.10;;
31596;SDS011;74162;50.912;6.918;2024-01-30T02:41:11;22.30;;;19.10;;
31596;SDS011;74162;50.912;6.918;2024-01-30T02:41:43;21.73;;;19.02;;
31596;SDS011;74162;50.912;6.918;2024-01-30T02:42:15;23.92;;;19.52;;
31596;SDS011;74162;50.912;6.918;2024-01-30T02:42:46;24.98;;;19.98;;
31596;SDS011;74162;50.912;6.918;2024-01-30T02:43:18;25.50;;;19.55;;
31596;SDS011;74162;50.912;6.918;2024-01-30T02:43:51;20.67;;;18.45;;
31596;SDS011;74162;50.912;6.918;2024-01-30T02:44:23;22.25;;;18.83;;
31596;SDS011;74162;50.912;6.918;2024-01-30T02:44:54;23.30;;;19.42;;
31596;SDS011;74162;50.912;6.918;2024-01-30T02:45:26;22.75;;;18.73;;
31596;SDS011;74162;50.912;6.918;2024-01-30T02:45:58;24.52;;;19.00;;
31596;SDS011;74162;50.912;6.918;2024-01-30T02:46:30;20.42;;;18.23;;
31596;SDS011;74162;50.912;6.918;2024-01-30T02:47:02;23.10;;;19.30;;
31596;SDS011;74162;50.912;6.918;2024-01-30T02:47:34;22.23;;;18.50;;
31596;SDS011;74162;50.912;6.918;2024-01-30T02:48:06;24.27;;;19.30;;
31596;SDS011;74162;50.912;6.918;2024-01-30T02:48:39;22.42;;;19.42;;
31596;SDS011;74162;50.912;6.918;2024-01-30T02:49:11;24.58;;;19.23;;
31596;SDS011;74162;50.912;6.918;2024-01-30T02:49:43;22.75;;;19.05;;
31596;SDS011;74162;50.912;6.918;2024-01-30T02:50:15;22.20;;;19.55;;
31596;SDS011;74162;50.912;6.918;2024-01-30T02:50:47;23.77;;;19.55;;
31596;SDS011;74162;50.912;6.918;2024-01-30T02:51:19;20.98;;;18.70;;
31596;SDS011;74162;50.912;6.918;2024-01-30T02:51:53;20.75;;;18.50;;
31596;SDS011;74162;50.912;6.918;2024-01-30T02:52:25;22.55;;;19.40;;
31596;SDS011;74162;50.912;6.918;2024-01-30T02:52:57;22.17;;;19.30;;
31596;SDS011;74162;50.912;6.918;2024-01-30T02:53:29;22.05;;;19.17;;
31596;SDS011;74162;50.912;6.918;2024-01-30T02:54:01;21.40;;;19.10;;
31596;SDS011;74162;50.912;6.918;2024-01-30T02:54:33;25.20;;;19.38;;
31596;SDS011;74162;50.912;6.918;2024-01-30T02:55:05;21.35;;;19.08;;
31596;SDS011;74162;50.912;6.918;2024-01-30T02:55:38;24.48;;;19.15;;
31596;SDS011;74162;50.912;6.918;2024-01-30T02:56:10;24.42;;;19.70;;
31596;SDS011;74162;50.912;6.918;2024-01-30T02:56:42;22.27;;;19.05;;
31596;SDS011;74162;50.912;6.918;2024-01-30T02:57:14;23.95;;;18.92;;
31596;SDS011;74162;50.912;6.918;2024-01-30T02:57:47;23.23;;;18.42;;
31596;SDS011;74162;50.912;6.918;2024-01-30T02:58:19;21.85;;;17.80;;
31596;SDS011;74162;50.912;6.918;2024-01-30T02:58:51;22.40;;;18.88;;
31596;SDS011;74162;50.912;6.918;2024-01-30T02:59:23;21.65;;;19.33;;
31596;SDS011;74162;50.912;6.918;2024-01-30T02:59:55;21.98;;;19.45;;
31596;SDS011;74162;50.912;6.918;2024-01-30T03:00:27;21.48;;;18.67;;
31596;SDS011;74162;50.912;6.918;2024-01-30T03:00:59;23.23;;;18.45;;
31596;SDS011;74162;50.912;6.918;2024-01-30T03:01:31;23.58;;;19.02;;
31596;SDS011;74162;50.912;6.918;2024-01-30T03:02:03;26.75;;;18.63;;
31596;SDS011;74162;50.912;6.918;2024-01-30T03:02:36;22.60;;;18.42;;
31596;SDS011;74162;50.912;6.918;2024-01-30T03:03:08;25.45;;;18.85;;
31596;SDS011;74162;50.912;6.918;2024-01-30T03:03:40;22.73;;;19.05;;
31596;SDS011;74162;50.912;6.918;2024-01-30T03:04:12;21.45;;;18.92;;
31596;SDS011;74162;50.912;6.918;2024-01-30T03:04:44;22.52;;;18.42;;
31596;SDS011;74162;50.912;6.918;2024-01-30T03:05:16;21.95;;;18.38;;
31596;SDS011;74162;50.912;6.918;2024-01-30T03:05:48;21.05;;;18.73;;
31596;SDS011;74162;50.912;6.918;2024-01-30T03:06:20;23.23;;;19.58;;
31596;SDS011;74162;50.912;6.918;2024-01-30T03:06:54;21.65;;;19.17;;
31596;SDS011;74162;50.912;6.918;2024-01-30T03:07:26;20.75;;;18.55;;
31596;SDS011;74162;50.912;6.918;2024-01-30T03:07:58;23.40;;;18.65;;
31596;SDS011;74162;50.912;6.918;2024-01-30T03:08:30;20.67;;;18.10;;